sensor_id;sensor_type;location;lat;lon;timestamp;temperature;humidity
70820;DHT22;58439;51.046;13.692;2023-04-02T00:01:38;8.80;99.90
70820;DHT22;58439;51.046;13.692;2023-04-02T00:04:16;8.70;99.90
70820;DHT22;58439;51.046;13.692;2023-04-02T00:06:52;8.70;99.90
70820;DHT22;58439;51.046;13.692;2023-04-02T00:09:31;8.70;99.90
70820;DHT22;58439;51.046;13.692;2023-04-02T00:12:14;8.70;99.90
70820;DHT22;58439;51.046;13.692;2023-04-02T00:15:11;8.70;99.90
70820;DHT22;58439;51.046;13.692;2023-04-02T00:17:41;8.70;99.90
70820;DHT22;58439;51.046;13.692;2023-04-02T00:20:23;8.70;99.90
70820;DHT22;58439;51.046;13.692;2023-04-02T00:22:53;8.70;99.90
70820;DHT22;58439;51.046;13.692;2023-04-02T00:25:39;8.70;99.90
70820;DHT22;58439;51.046;13.692;2023-04-02T00:28:38;8.70;99.90
70820;DHT22;58439;51.046;13.692;2023-04-02T00:31:09;8.60;99.90
70820;DHT22;58439;51.046;13.692;2023-04-02T00:33:37;8.60;99.90
70820;DHT22;58439;51.046;13.692;2023-04-02T00:36:05;8.50;99.90
70820;DHT22;58439;51.046;13.692;2023-04-02T00:38:34;8.40;99.90
70820;DHT22;58439;51.046;13.692;2023-04-02T00:41:13;8.40;99.90
70820;DHT22;58439;51.046;13.692;2023-04-02T00:43:51;8.40;99.90
70820;DHT22;58439;51.046;13.692;2023-04-02T00:46:46;8.30;99.90
70820;DHT22;58439;51.046;13.692;2023-04-02T00:49:38;8.20;99.90
70820;DHT22;58439;51.046;13.692;2023-04-02T00:52:18;8.20;99.90
70820;DHT22;58439;51.046;13.692;2023-04-02T00:57:54;8.10;99.90
70820;DHT22;58439;51.046;13.692;2023-04-02T01:00:30;8.10;99.90
70820;DHT22;58439;51.046;13.692;2023-04-02T01:03:57;8.10;99.90
70820;DHT22;58439;51.046;13.692;2023-04-02T01:06:55;8.00;99.90
70820;DHT22;58439;51.046;13.692;2023-04-02T01:14:11;7.90;99.90
70820;DHT22;58439;51.046;13.692;2023-04-02T01:16:54;7.90;99.90
70820;DHT22;58439;51.046;13.692;2023-04-02T01:20:35;7.80;99.90
70820;DHT22;58439;51.046;13.692;2023-04-02T01:29:57;7.70;99.90
70820;DHT22;58439;51.046;13.692;2023-04-02T01:32:57;7.60;99.90
70820;DHT22;58439;51.046;13.692;2023-04-02T01:35:37;7.50;99.90
70820;DHT22;58439;51.046;13.692;2023-04-02T01:38:15;7.40;99.90
70820;DHT22;58439;51.046;13.692;2023-04-02T01:41:08;7.40;99.90
70820;DHT22;58439;51.046;13.692;2023-04-02T01:44:08;7.40;99.90
70820;DHT22;58439;51.046;13.692;2023-04-02T01:46:56;7.30;99.90
70820;DHT22;58439;51.046;13.692;2023-04-02T01:49:27;7.30;99.90
70820;DHT22;58439;51.046;13.692;2023-04-02T01:52:00;7.20;99.90
70820;DHT22;58439;51.046;13.692;2023-04-02T01:54:35;7.20;99.90
70820;DHT22;58439;51.046;13.692;2023-04-02T01:57:04;7.10;99.90
70820;DHT22;58439;51.046;13.692;2023-04-02T01:59:41;7.10;99.90
70820;DHT22;58439;51.046;13.692;2023-04-02T02:02:12;7.00;99.90
70820;DHT22;58439;51.046;13.692;2023-04-02T02:05:54;7.00;99.90
70820;DHT22;58439;51.046;13.692;2023-04-02T02:08:40;6.80;99.90
70820;DHT22;58439;51.046;13.692;2023-04-02T02:11:24;6.80;99.90
70820;DHT22;58439;51.046;13.692;2023-04-02T02:14:24;6.70;99.90
70820;DHT22;58439;51.046;13.692;2023-04-02T02:16:57;6.70;99.90
70820;DHT22;58439;51.046;13.692;2023-04-02T02:19:46;6.70;99.90
70820;DHT22;58439;51.046;13.692;2023-04-02T02:22:47;6.60;99.90
70820;DHT22;58439;51.046;13.692;2023-04-02T02:25:23;6.50;99.90
70820;DHT22;58439;51.046;13.692;2023-04-02T02:28:20;6.50;99.90
70820;DHT22;58439;51.046;13.692;2023-04-02T02:33:47;6.40;99.90
70820;DHT22;58439;51.046;13.692;2023-04-02T02:36:34;6.50;99.90
70820;DHT22;58439;51.046;13.692;2023-04-02T02:39:21;6.50;99.90
70820;DHT22;58439;51.046;13.692;2023-04-02T02:45:14;6.40;99.90
70820;DHT22;58439;51.046;13.692;2023-04-02T02:47:45;6.40;99.90
70820;DHT22;58439;51.046;13.692;2023-04-02T02:50:33;6.50;99.90
70820;DHT22;58439;51.046;13.692;2023-04-02T02:53:52;6.40;99.90
70820;DHT22;58439;51.046;13.692;2023-04-02T02:56:25;6.40;99.90
70820;DHT22;58439;51.046;13.692;2023-04-02T02:59:02;6.40;99.90
70820;DHT22;58439;51.046;13.692;2023-04-02T03:01:38;6.40;99.90
70820;DHT22;58439;51.046;13.692;2023-04-02T03:04:31;6.40;99.90
70820;DHT22;58439;51.046;13.692;2023-04-02T03:07:49;6.30;99.90
70820;DHT22;58439;51.046;13.692;2023-04-02T03:10:49;6.30;99.90
70820;DHT22;58439;51.046;13.692;2023-04-02T03:13:37;6.30;99.90
70820;DHT22;58439;51.046;13.692;2023-04-02T03:22:07;6.30;99.90
70820;DHT22;58439;51.046;13.692;2023-04-02T03:24:48;6.20;99.90
70820;DHT22;58439;51.046;13.692;2023-04-02T03:27:37;6.20;99.90
70820;DHT22;58439;51.046;13.692;2023-04-02T03:33:49;6.00;99.90
70820;DHT22;58439;51.046;13.692;2023-04-02T03:36:41;6.00;99.90
70820;DHT22;58439;51.046;13.692;2023-04-02T03:43:10;6.00;99.90
70820;DHT22;58439;51.046;13.692;2023-04-02T03:49:40;5.90;99.90
70820;DHT22;58439;51.046;13.692;2023-04-02T03:52:27;5.90;99.90
70820;DHT22;58439;51.046;13.692;2023-04-02T03:59:03;5.80;99.90
70820;DHT22;58439;51.046;13.692;2023-04-02T04:02:50;5.80;99.90
70820;DHT22;58439;51.046;13.692;2023-04-02T04:05:36;5.80;99.90
70820;DHT22;58439;51.046;13.692;2023-04-02T04:08:40;5.70;99.90
70820;DHT22;58439;51.046;13.692;2023-04-02T04:11:20;5.70;99.90
70820;DHT22;58439;51.046;13.692;2023-04-02T04:14:47;5.60;99.90
70820;DHT22;58439;51.046;13.692;2023-04-02T04:18:39;5.60;99.90
70820;DHT22;58439;51.046;13.692;2023-04-02T04:21:22;5.60;99.90
70820;DHT22;58439;51.046;13.692;2023-04-02T04:24:24;5.50;99.90
70820;DHT22;58439;51.046;13.692;2023-04-02T04:30:02;5.50;99.90
70820;DHT22;58439;51.046;13.692;2023-04-02T04:32:46;5.50;99.90
70820;DHT22;58439;51.046;13.692;2023-04-02T04:35:45;5.60;99.90
70820;DHT22;58439;51.046;13.692;2023-04-02T04:38:36;5.60;99.90
70820;DHT22;58439;51.046;13.692;2023-04-02T04:41:36;5.50;99.90
70820;DHT22;58439;51.046;13.692;2023-04-02T04:44:16;5.40;99.90
70820;DHT22;58439;51.046;13.692;2023-04-02T04:47:00;5.40;99.90
70820;DHT22;58439;51.046;13.692;2023-04-02T04:49:54;5.30;99.90
70820;DHT22;58439;51.046;13.692;2023-04-02T04:52:38;5.30;99.90
70820;DHT22;58439;51.046;13.692;2023-04-02T05:02:10;5.20;99.90
70820;DHT22;58439;51.046;13.692;2023-04-02T05:04:51;5.10;99.90
70820;DHT22;58439;51.046;13.692;2023-04-02T05:07:35;5.10;99.90
70820;DHT22;58439;51.046;13.692;2023-04-02T05:10:57;5.00;99.90
70820;DHT22;58439;51.046;13.692;2023-04-02T05:14:00;5.00;99.90
70820;DHT22;58439;51.046;13.692;2023-04-02T05:17:04;4.90;99.90
70820;DHT22;58439;51.046;13.692;2023-04-02T05:20:32;5.00;99.90
70820;DHT22;58439;51.046;13.692;2023-04-02T05:27:23;4.90;99.90
70820;DHT22;58439;51.046;13.692;2023-04-02T05:33:22;4.90;99.90
70820;DHT22;58439;51.046;13.692;2023-04-02T05:36:10;4.90;99.90
70820;DHT22;58439;51.046;13.692;2023-04-02T05:38:49;4.90;99.90
70820;DHT22;58439;51.046;13.692;2023-04-02T05:44:54;4.90;99.90
70820;DHT22;58439;51.046;13.692;2023-04-02T05:48:19;4.80;99.90
70820;DHT22;58439;51.046;13.692;2023-04-02T05:51:34;4.80;99.90
70820;DHT22;58439;51.046;13.692;2023-04-02T05:54:43;4.70;99.90
70820;DHT22;58439;51.046;13.692;2023-04-02T05:57:37;4.70;99.90
70820;DHT22;58439;51.046;13.692;2023-04-02T06:05:01;4.60;99.90
70820;DHT22;58439;51.046;13.692;2023-04-02T06:07:44;4.60;99.90
70820;DHT22;58439;51.046;13.692;2023-04-02T06:10:33;4.50;99.90
70820;DHT22;58439;51.046;13.692;2023-04-02T06:13:16;4.60;99.90
70820;DHT22;58439;51.046;13.692;2023-04-02T06:15:45;4.60;99.90
70820;DHT22;58439;51.046;13.692;2023-04-02T06:18:27;4.60;99.90
70820;DHT22;58439;51.046;13.692;2023-04-02T06:20:58;4.60;99.90
70820;DHT22;58439;51.046;13.692;2023-04-02T06:26:27;4.60;99.90
70820;DHT22;58439;51.046;13.692;2023-04-02T06:31:38;4.50;99.90
70820;DHT22;58439;51.046;13.692;2023-04-02T06:34:18;4.50;99.90
70820;DHT22;58439;51.046;13.692;2023-04-02T06:36:58;4.50;99.90
70820;DHT22;58439;51.046;13.692;2023-04-02T06:39:30;4.50;99.90
70820;DHT22;58439;51.046;13.692;2023-04-02T06:42:05;4.50;99.90
70820;DHT22;58439;51.046;13.692;2023-04-02T06:45:27;4.50;99.90
70820;DHT22;58439;51.046;13.692;2023-04-02T06:48:28;4.50;99.90
70820;DHT22;58439;51.046;13.692;2023-04-02T06:51:08;4.50;99.90
70820;DHT22;58439;51.046;13.692;2023-04-02T06:53:44;4.50;99.90
70820;DHT22;58439;51.046;13.692;2023-04-02T06:59:37;4.60;99.90
70820;DHT22;58439;51.046;13.692;2023-04-02T07:02:28;4.60;99.90
70820;DHT22;58439;51.046;13.692;2023-04-02T07:05:34;4.60;99.90
70820;DHT22;58439;51.046;13.692;2023-04-02T07:08:49;4.50;99.90
70820;DHT22;58439;51.046;13.692;2023-04-02T07:11:43;4.50;99.90
70820;DHT22;58439;51.046;13.692;2023-04-02T07:14:13;4.50;99.90
70820;DHT22;58439;51.046;13.692;2023-04-02T07:16:41;4.50;99.90
70820;DHT22;58439;51.046;13.692;2023-04-02T07:20:34;4.50;99.90
70820;DHT22;58439;51.046;13.692;2023-04-02T07:24:35;4.50;99.90
70820;DHT22;58439;51.046;13.692;2023-04-02T07:28:07;4.50;99.90
70820;DHT22;58439;51.046;13.692;2023-04-02T07:30:34;4.50;99.90
70820;DHT22;58439;51.046;13.692;2023-04-02T07:34:25;4.50;99.90
70820;DHT22;58439;51.046;13.692;2023-04-02T07:36:53;4.50;99.90
70820;DHT22;58439;51.046;13.692;2023-04-02T07:39:20;4.50;99.90
70820;DHT22;58439;51.046;13.692;2023-04-02T07:41:58;4.40;99.90
70820;DHT22;58439;51.046;13.692;2023-04-02T07:44:28;4.40;99.90
70820;DHT22;58439;51.046;13.692;2023-04-02T07:46:56;4.50;99.90
70820;DHT22;58439;51.046;13.692;2023-04-02T07:49:23;4.50;99.90
70820;DHT22;58439;51.046;13.692;2023-04-02T07:51:52;4.50;99.90
70820;DHT22;58439;51.046;13.692;2023-04-02T07:58:32;4.60;99.90
70820;DHT22;58439;51.046;13.692;2023-04-02T08:05:03;4.60;99.90
70820;DHT22;58439;51.046;13.692;2023-04-02T08:07:39;4.60;99.90
70820;DHT22;58439;51.046;13.692;2023-04-02T08:10:09;4.60;99.90
70820;DHT22;58439;51.046;13.692;2023-04-02T08:13:18;4.70;99.90
70820;DHT22;58439;51.046;13.692;2023-04-02T08:16:53;4.60;99.90
70820;DHT22;58439;51.046;13.692;2023-04-02T08:19:58;4.70;99.90
70820;DHT22;58439;51.046;13.692;2023-04-02T08:22:30;4.70;99.90
70820;DHT22;58439;51.046;13.692;2023-04-02T08:25:01;4.80;99.90
70820;DHT22;58439;51.046;13.692;2023-04-02T08:27:41;4.80;99.90
70820;DHT22;58439;51.046;13.692;2023-04-02T08:30:25;4.80;99.90
70820;DHT22;58439;51.046;13.692;2023-04-02T08:33:11;4.90;99.90
70820;DHT22;58439;51.046;13.692;2023-04-02T08:36:04;4.90;99.90
70820;DHT22;58439;51.046;13.692;2023-04-02T08:39:13;4.90;99.80
70820;DHT22;58439;51.046;13.692;2023-04-02T08:48:59;4.90;99.00
70820;DHT22;58439;51.046;13.692;2023-04-02T08:53:38;5.00;99.10
70820;DHT22;58439;51.046;13.692;2023-04-02T08:56:35;5.10;98.20
70820;DHT22;58439;51.046;13.692;2023-04-02T08:59:37;5.10;97.80
70820;DHT22;58439;51.046;13.692;2023-04-02T09:05:17;5.10;97.30
70820;DHT22;58439;51.046;13.692;2023-04-02T09:08:01;5.10;97.10
70820;DHT22;58439;51.046;13.692;2023-04-02T09:17:46;5.10;95.20
70820;DHT22;58439;51.046;13.692;2023-04-02T09:20:25;5.00;94.80
70820;DHT22;58439;51.046;13.692;2023-04-02T09:22:54;5.10;95.50
70820;DHT22;58439;51.046;13.692;2023-04-02T09:25:28;5.10;96.00
70820;DHT22;58439;51.046;13.692;2023-04-02T09:28:04;5.10;96.10
70820;DHT22;58439;51.046;13.692;2023-04-02T09:57:03;4.90;96.80
70820;DHT22;58439;51.046;13.692;2023-04-02T10:00:31;4.90;96.50
70820;DHT22;58439;51.046;13.692;2023-04-02T10:03:04;5.00;96.30
70820;DHT22;58439;51.046;13.692;2023-04-02T10:05:42;4.90;96.30
70820;DHT22;58439;51.046;13.692;2023-04-02T10:08:19;4.90;96.40
70820;DHT22;58439;51.046;13.692;2023-04-02T10:10:57;4.80;96.90
70820;DHT22;58439;51.046;13.692;2023-04-02T10:16:27;4.90;97.60
70820;DHT22;58439;51.046;13.692;2023-04-02T10:21:57;5.20;97.00
70820;DHT22;58439;51.046;13.692;2023-04-02T10:25:01;5.20;96.50
70820;DHT22;58439;51.046;13.692;2023-04-02T10:28:30;5.20;96.10
70820;DHT22;58439;51.046;13.692;2023-04-02T10:31:25;5.30;96.10
70820;DHT22;58439;51.046;13.692;2023-04-02T10:35:01;5.20;95.90
70820;DHT22;58439;51.046;13.692;2023-04-02T10:48:20;5.40;95.70
70820;DHT22;58439;51.046;13.692;2023-04-02T10:56:45;5.70;93.80
70820;DHT22;58439;51.046;13.692;2023-04-02T10:59:28;5.70;93.50
70820;DHT22;58439;51.046;13.692;2023-04-02T11:02:05;5.60;93.50
70820;DHT22;58439;51.046;13.692;2023-04-02T11:04:51;5.60;93.50
70820;DHT22;58439;51.046;13.692;2023-04-02T11:07:25;5.60;93.80
70820;DHT22;58439;51.046;13.692;2023-04-02T11:09:59;5.60;93.60
70820;DHT22;58439;51.046;13.692;2023-04-02T11:15:54;5.70;93.20
70820;DHT22;58439;51.046;13.692;2023-04-02T11:24:42;5.80;93.10
70820;DHT22;58439;51.046;13.692;2023-04-02T11:37:41;6.00;92.00
70820;DHT22;58439;51.046;13.692;2023-04-02T11:42:40;5.90;91.70
70820;DHT22;58439;51.046;13.692;2023-04-02T11:50:44;6.00;92.10
70820;DHT22;58439;51.046;13.692;2023-04-02T11:53:25;6.00;92.20
70820;DHT22;58439;51.046;13.692;2023-04-02T12:02:24;5.90;91.70
70820;DHT22;58439;51.046;13.692;2023-04-02T12:08:23;5.90;91.10
70820;DHT22;58439;51.046;13.692;2023-04-02T12:11:10;6.00;91.00
70820;DHT22;58439;51.046;13.692;2023-04-02T12:22:45;6.30;88.50
70820;DHT22;58439;51.046;13.692;2023-04-02T12:25:36;6.30;88.80
70820;DHT22;58439;51.046;13.692;2023-04-02T12:28:24;6.30;89.30
70820;DHT22;58439;51.046;13.692;2023-04-02T12:31:13;6.30;89.40
70820;DHT22;58439;51.046;13.692;2023-04-02T12:33:45;6.40;88.90
70820;DHT22;58439;51.046;13.692;2023-04-02T12:36:20;6.40;87.60
70820;DHT22;58439;51.046;13.692;2023-04-02T12:38:54;6.50;87.10
70820;DHT22;58439;51.046;13.692;2023-04-02T12:41:27;6.60;87.10
70820;DHT22;58439;51.046;13.692;2023-04-02T12:44:01;6.70;86.50
70820;DHT22;58439;51.046;13.692;2023-04-02T12:46:32;6.80;86.10
70820;DHT22;58439;51.046;13.692;2023-04-02T12:49:06;6.80;85.70
70820;DHT22;58439;51.046;13.692;2023-04-02T12:51:40;7.00;84.80
70820;DHT22;58439;51.046;13.692;2023-04-02T12:54:13;7.10;83.70
70820;DHT22;58439;51.046;13.692;2023-04-02T12:56:44;7.10;82.10
70820;DHT22;58439;51.046;13.692;2023-04-02T12:59:35;7.10;80.50
70820;DHT22;58439;51.046;13.692;2023-04-02T13:02:22;7.00;77.20
70820;DHT22;58439;51.046;13.692;2023-04-02T13:04:52;6.90;78.40
70820;DHT22;58439;51.046;13.692;2023-04-02T13:07:24;6.90;79.80
70820;DHT22;58439;51.046;13.692;2023-04-02T13:10:17;7.00;80.10
70820;DHT22;58439;51.046;13.692;2023-04-02T13:12:54;7.20;79.70
70820;DHT22;58439;51.046;13.692;2023-04-02T13:15:31;7.40;77.20
70820;DHT22;58439;51.046;13.692;2023-04-02T13:20:39;7.50;74.70
70820;DHT22;58439;51.046;13.692;2023-04-02T13:28:59;7.10;76.60
70820;DHT22;58439;51.046;13.692;2023-04-02T13:31:30;6.90;78.50
70820;DHT22;58439;51.046;13.692;2023-04-02T13:34:00;6.80;80.10
70820;DHT22;58439;51.046;13.692;2023-04-02T13:36:28;6.90;81.20
70820;DHT22;58439;51.046;13.692;2023-04-02T13:38:58;6.90;79.70
70820;DHT22;58439;51.046;13.692;2023-04-02T13:41:27;6.90;80.10
70820;DHT22;58439;51.046;13.692;2023-04-02T13:43:59;6.90;79.50
70820;DHT22;58439;51.046;13.692;2023-04-02T13:46:32;6.90;79.90
70820;DHT22;58439;51.046;13.692;2023-04-02T13:49:00;6.80;80.20
70820;DHT22;58439;51.046;13.692;2023-04-02T13:51:35;6.80;80.80
70820;DHT22;58439;51.046;13.692;2023-04-02T13:54:55;6.80;79.90
70820;DHT22;58439;51.046;13.692;2023-04-02T13:57:11;6.70;79.20
70820;DHT22;58439;51.046;13.692;2023-04-02T13:59:38;6.60;80.50
70820;DHT22;58439;51.046;13.692;2023-04-02T14:02:15;6.60;81.70
70820;DHT22;58439;51.046;13.692;2023-04-02T14:04:49;6.60;81.40
70820;DHT22;58439;51.046;13.692;2023-04-02T14:07:28;6.50;81.70
70820;DHT22;58439;51.046;13.692;2023-04-02T14:14:08;6.40;82.70
70820;DHT22;58439;51.046;13.692;2023-04-02T14:30:03;6.40;83.40
70820;DHT22;58439;51.046;13.692;2023-04-02T14:40:54;6.20;83.70
70820;DHT22;58439;51.046;13.692;2023-04-02T14:43:35;6.20;84.50
70820;DHT22;58439;51.046;13.692;2023-04-02T14:46:08;6.20;84.60
70820;DHT22;58439;51.046;13.692;2023-04-02T14:51:58;6.20;83.40
70820;DHT22;58439;51.046;13.692;2023-04-02T14:54:55;6.20;83.40
70820;DHT22;58439;51.046;13.692;2023-04-02T14:57:37;6.20;83.70
70820;DHT22;58439;51.046;13.692;2023-04-02T15:00:34;6.10;82.40
70820;DHT22;58439;51.046;13.692;2023-04-02T15:03:15;6.10;83.00
70820;DHT22;58439;51.046;13.692;2023-04-02T15:06:01;6.00;83.50
70820;DHT22;58439;51.046;13.692;2023-04-02T15:08:39;6.00;83.40
70820;DHT22;58439;51.046;13.692;2023-04-02T15:11:47;6.00;81.70
70820;DHT22;58439;51.046;13.692;2023-04-02T15:14:22;6.00;79.80
70820;DHT22;58439;51.046;13.692;2023-04-02T15:17:03;6.00;80.30
70820;DHT22;58439;51.046;13.692;2023-04-02T15:19:30;6.00;80.90
70820;DHT22;58439;51.046;13.692;2023-04-02T15:30:48;5.90;82.00
70820;DHT22;58439;51.046;13.692;2023-04-02T15:39:10;6.00;83.50
70820;DHT22;58439;51.046;13.692;2023-04-02T15:41:59;6.00;82.80
70820;DHT22;58439;51.046;13.692;2023-04-02T15:44:46;6.10;82.10
70820;DHT22;58439;51.046;13.692;2023-04-02T15:47:47;6.10;81.80
70820;DHT22;58439;51.046;13.692;2023-04-02T15:51:08;6.10;81.80
70820;DHT22;58439;51.046;13.692;2023-04-02T15:53:33;6.10;81.80
70820;DHT22;58439;51.046;13.692;2023-04-02T15:56:55;6.10;81.50
70820;DHT22;58439;51.046;13.692;2023-04-02T15:59:42;6.10;81.60
70820;DHT22;58439;51.046;13.692;2023-04-02T16:11:13;6.10;81.20
70820;DHT22;58439;51.046;13.692;2023-04-02T16:13:41;6.10;81.60
70820;DHT22;58439;51.046;13.692;2023-04-02T16:16:26;6.10;81.90
70820;DHT22;58439;51.046;13.692;2023-04-02T16:19:11;6.10;82.10
70820;DHT22;58439;51.046;13.692;2023-04-02T16:24:37;6.10;83.00
70820;DHT22;58439;51.046;13.692;2023-04-02T16:27:32;6.10;82.00
70820;DHT22;58439;51.046;13.692;2023-04-02T16:30:26;6.10;82.40
70820;DHT22;58439;51.046;13.692;2023-04-02T16:39:24;6.10;82.30
70820;DHT22;58439;51.046;13.692;2023-04-02T16:42:06;6.10;83.20
70820;DHT22;58439;51.046;13.692;2023-04-02T16:45:10;6.10;82.40
70820;DHT22;58439;51.046;13.692;2023-04-02T16:48:25;6.10;82.30
70820;DHT22;58439;51.046;13.692;2023-04-02T16:54:30;6.10;83.40
70820;DHT22;58439;51.046;13.692;2023-04-02T17:03:01;6.00;84.10
70820;DHT22;58439;51.046;13.692;2023-04-02T17:06:03;5.90;85.10
70820;DHT22;58439;51.046;13.692;2023-04-02T17:08:57;5.90;85.80
70820;DHT22;58439;51.046;13.692;2023-04-02T17:11:50;5.80;86.20
70820;DHT22;58439;51.046;13.692;2023-04-02T17:14:39;5.80;86.70
70820;DHT22;58439;51.046;13.692;2023-04-02T17:17:14;5.80;87.10
70820;DHT22;58439;51.046;13.692;2023-04-02T17:20:12;5.80;87.70
70820;DHT22;58439;51.046;13.692;2023-04-02T17:22:45;5.80;88.10
70820;DHT22;58439;51.046;13.692;2023-04-02T17:25:26;5.70;88.30
70820;DHT22;58439;51.046;13.692;2023-04-02T17:27:57;5.70;87.80
70820;DHT22;58439;51.046;13.692;2023-04-02T17:30:40;5.70;88.80
70820;DHT22;58439;51.046;13.692;2023-04-02T17:33:16;5.70;89.10
70820;DHT22;58439;51.046;13.692;2023-04-02T17:41:55;5.60;90.00
70820;DHT22;58439;51.046;13.692;2023-04-02T17:48:11;5.60;90.40
70820;DHT22;58439;51.046;13.692;2023-04-02T17:51:56;5.50;90.60
70820;DHT22;58439;51.046;13.692;2023-04-02T18:03:45;5.40;91.60
70820;DHT22;58439;51.046;13.692;2023-04-02T18:06:19;5.30;91.70
70820;DHT22;58439;51.046;13.692;2023-04-02T18:09:10;5.30;92.10
70820;DHT22;58439;51.046;13.692;2023-04-02T18:19:33;5.30;92.30
70820;DHT22;58439;51.046;13.692;2023-04-02T18:22:15;5.20;92.30
70820;DHT22;58439;51.046;13.692;2023-04-02T18:24:56;5.20;92.40
70820;DHT22;58439;51.046;13.692;2023-04-02T18:27:48;5.20;92.50
70820;DHT22;58439;51.046;13.692;2023-04-02T18:31:26;5.20;92.60
70820;DHT22;58439;51.046;13.692;2023-04-02T18:40:22;5.20;92.80
70820;DHT22;58439;51.046;13.692;2023-04-02T18:43:29;5.20;92.90
70820;DHT22;58439;51.046;13.692;2023-04-02T18:46:23;5.20;93.00
70820;DHT22;58439;51.046;13.692;2023-04-02T18:49:14;5.20;93.10
70820;DHT22;58439;51.046;13.692;2023-04-02T18:51:49;5.20;93.10
70820;DHT22;58439;51.046;13.692;2023-04-02T18:56:56;5.20;93.40
70820;DHT22;58439;51.046;13.692;2023-04-02T18:59:40;5.20;93.50
70820;DHT22;58439;51.046;13.692;2023-04-02T19:02:38;5.20;93.60
70820;DHT22;58439;51.046;13.692;2023-04-02T19:08:32;5.20;93.80
70820;DHT22;58439;51.046;13.692;2023-04-02T19:11:22;5.20;93.90
70820;DHT22;58439;51.046;13.692;2023-04-02T19:13:59;5.20;93.90
70820;DHT22;58439;51.046;13.692;2023-04-02T19:19:29;5.20;93.90
70820;DHT22;58439;51.046;13.692;2023-04-02T19:23:09;5.20;94.00
70820;DHT22;58439;51.046;13.692;2023-04-02T19:25:55;5.20;94.10
70820;DHT22;58439;51.046;13.692;2023-04-02T19:28:44;5.20;94.20
70820;DHT22;58439;51.046;13.692;2023-04-02T19:31:45;5.20;94.30
70820;DHT22;58439;51.046;13.692;2023-04-02T19:34:38;5.10;94.20
70820;DHT22;58439;51.046;13.692;2023-04-02T19:37:37;5.20;94.30
70820;DHT22;58439;51.046;13.692;2023-04-02T19:43:10;5.20;94.40
70820;DHT22;58439;51.046;13.692;2023-04-02T19:45:39;5.10;94.50
70820;DHT22;58439;51.046;13.692;2023-04-02T19:48:15;5.20;94.50
70820;DHT22;58439;51.046;13.692;2023-04-02T19:50:48;5.10;94.60
70820;DHT22;58439;51.046;13.692;2023-04-02T19:53:16;5.20;94.70
70820;DHT22;58439;51.046;13.692;2023-04-02T19:55:44;5.20;94.70
70820;DHT22;58439;51.046;13.692;2023-04-02T19:58:29;5.20;94.70
70820;DHT22;58439;51.046;13.692;2023-04-02T20:00:58;5.20;94.80
70820;DHT22;58439;51.046;13.692;2023-04-02T20:03:27;5.10;94.90
70820;DHT22;58439;51.046;13.692;2023-04-02T20:05:57;5.10;95.00
70820;DHT22;58439;51.046;13.692;2023-04-02T20:08:26;5.10;95.40
70820;DHT22;58439;51.046;13.692;2023-04-02T20:10:54;5.10;95.20
70820;DHT22;58439;51.046;13.692;2023-04-02T20:13:25;5.10;95.30
70820;DHT22;58439;51.046;13.692;2023-04-02T20:15:52;5.10;95.40
70820;DHT22;58439;51.046;13.692;2023-04-02T20:18:20;5.00;95.50
70820;DHT22;58439;51.046;13.692;2023-04-02T20:20:48;5.00;95.60
70820;DHT22;58439;51.046;13.692;2023-04-02T20:23:15;5.00;95.50
70820;DHT22;58439;51.046;13.692;2023-04-02T20:25:48;5.00;95.40
70820;DHT22;58439;51.046;13.692;2023-04-02T20:28:24;5.10;95.20
70820;DHT22;58439;51.046;13.692;2023-04-02T20:30:53;5.10;95.00
70820;DHT22;58439;51.046;13.692;2023-04-02T20:41:38;5.10;94.40
70820;DHT22;58439;51.046;13.692;2023-04-02T20:44:05;5.20;93.90
70820;DHT22;58439;51.046;13.692;2023-04-02T20:46:44;5.20;93.70
70820;DHT22;58439;51.046;13.692;2023-04-02T20:50:07;5.20;93.60
70820;DHT22;58439;51.046;13.692;2023-04-02T20:56:53;5.20;93.30
70820;DHT22;58439;51.046;13.692;2023-04-02T20:59:26;5.20;93.30
70820;DHT22;58439;51.046;13.692;2023-04-02T21:01:55;5.20;93.40
70820;DHT22;58439;51.046;13.692;2023-04-02T21:04:22;5.20;93.20
70820;DHT22;58439;51.046;13.692;2023-04-02T21:06:51;5.20;93.00
70820;DHT22;58439;51.046;13.692;2023-04-02T21:09:23;5.20;93.10
70820;DHT22;58439;51.046;13.692;2023-04-02T21:11:50;5.20;92.80
70820;DHT22;58439;51.046;13.692;2023-04-02T21:14:17;5.20;92.50
70820;DHT22;58439;51.046;13.692;2023-04-02T21:16:44;5.20;92.50
70820;DHT22;58439;51.046;13.692;2023-04-02T21:19:12;5.20;91.90
70820;DHT22;58439;51.046;13.692;2023-04-02T21:21:39;5.20;91.80
70820;DHT22;58439;51.046;13.692;2023-04-02T21:24:07;5.20;91.70
70820;DHT22;58439;51.046;13.692;2023-04-02T21:26:38;5.20;91.20
70820;DHT22;58439;51.046;13.692;2023-04-02T21:29:07;5.20;90.80
70820;DHT22;58439;51.046;13.692;2023-04-02T21:31:39;5.20;90.70
70820;DHT22;58439;51.046;13.692;2023-04-02T21:34:09;5.20;90.30
70820;DHT22;58439;51.046;13.692;2023-04-02T21:36:45;5.20;89.60
70820;DHT22;58439;51.046;13.692;2023-04-02T21:41:50;5.20;88.20
70820;DHT22;58439;51.046;13.692;2023-04-02T21:44:22;5.20;88.30
70820;DHT22;58439;51.046;13.692;2023-04-02T21:46:50;5.10;88.40
70820;DHT22;58439;51.046;13.692;2023-04-02T21:49:21;5.10;87.90
70820;DHT22;58439;51.046;13.692;2023-04-02T21:51:49;5.10;87.50
70820;DHT22;58439;51.046;13.692;2023-04-02T21:54:20;5.10;87.80
70820;DHT22;58439;51.046;13.692;2023-04-02T21:56:49;5.10;87.80
70820;DHT22;58439;51.046;13.692;2023-04-02T21:59:17;5.00;87.50
70820;DHT22;58439;51.046;13.692;2023-04-02T22:01:48;5.10;87.80
70820;DHT22;58439;51.046;13.692;2023-04-02T22:04:22;5.10;87.30
70820;DHT22;58439;51.046;13.692;2023-04-02T22:06:51;5.00;87.20
70820;DHT22;58439;51.046;13.692;2023-04-02T22:09:24;5.00;87.50
70820;DHT22;58439;51.046;13.692;2023-04-02T22:11:55;5.00;86.90
70820;DHT22;58439;51.046;13.692;2023-04-02T22:14:26;5.00;87.00
70820;DHT22;58439;51.046;13.692;2023-04-02T22:16:53;4.90;86.90
70820;DHT22;58439;51.046;13.692;2023-04-02T22:19:21;5.00;86.90
70820;DHT22;58439;51.046;13.692;2023-04-02T22:21:48;4.90;87.10
70820;DHT22;58439;51.046;13.692;2023-04-02T22:24:17;4.90;87.30
70820;DHT22;58439;51.046;13.692;2023-04-02T22:26:45;4.90;87.40
70820;DHT22;58439;51.046;13.692;2023-04-02T22:29:14;4.90;87.60
70820;DHT22;58439;51.046;13.692;2023-04-02T22:35:11;4.80;87.40
70820;DHT22;58439;51.046;13.692;2023-04-02T22:37:39;4.80;87.70
70820;DHT22;58439;51.046;13.692;2023-04-02T22:40:06;4.80;86.90
70820;DHT22;58439;51.046;13.692;2023-04-02T22:42:34;4.70;87.00
70820;DHT22;58439;51.046;13.692;2023-04-02T22:45:01;4.70;86.80
70820;DHT22;58439;51.046;13.692;2023-04-02T22:47:46;4.70;86.70
70820;DHT22;58439;51.046;13.692;2023-04-02T22:50:30;4.70;86.90
70820;DHT22;58439;51.046;13.692;2023-04-02T22:53:33;4.60;87.10